»·PEaware :: N357G KSNA-KSBD

N357G :: KSNA-KSBD

FLIGHT INFORMATION

Flight Status: Arrived
Operator: Privately registered:
United States
More flights under this callsign
Pilot: Graham S. (10862)
Aircraft: CIRRUS SR-22
(SR22)
More flights by this aircraft type
Origin: KSNA John Wayne-Orange Co
United States
Destination: KSBD San Bernardino Intl
United States
More flights between these airports :: More routes between these airports
Route:
File this flight plan on PilotEdge
Remarks:
Altitude:
(Current/Filed)
6,500ft
Speed:
(Current/Filed)
176kts
Departed: 17-Aug-18 10:55 AM
Arrived: 17-Aug-18 11:20 AM
Distance/Time
Traveled:
40nm/0:25
Distance/Time
To Go:
Arrived

Flight Plot

Page will automatically refresh every two minutes.


Map Options




Map Legend


Flown Route
Filed Route
Departure Airport
Arrival Airport
Navaid (VOR, NDB)
Fix

Horizontal Profiles

Position Reports

Time Latitude Longitude Heading Altitude Ground
Speed
17-Aug-18 10:09 33.670713 -117.874179 211 59ft 0kts
17-Aug-18 10:10 33.670711 -117.874180 212 59ft 0kts
17-Aug-18 10:11 33.670711 -117.874181 212 59ft 0kts
17-Aug-18 10:12 33.670710 -117.874182 213 59ft 0kts
17-Aug-18 10:13 33.670708 -117.874183 213 59ft 0kts
17-Aug-18 10:14 33.670708 -117.874183 213 59ft 0kts
17-Aug-18 10:15 33.670707 -117.874184 214 59ft 0kts
17-Aug-18 10:16 33.670706 -117.874184 214 59ft 0kts
17-Aug-18 10:17 33.670705 -117.874185 215 59ft 0kts
17-Aug-18 10:18 33.670705 -117.874186 215 59ft 0kts
17-Aug-18 10:19 33.670704 -117.874186 215 59ft 0kts
17-Aug-18 10:20 33.670704 -117.874187 216 59ft 0kts
17-Aug-18 10:24 33.670862 -117.874488 209 59ft 0kts
17-Aug-18 10:25 33.670862 -117.874488 209 59ft 0kts
17-Aug-18 10:26 33.670861 -117.874489 209 59ft 0kts
17-Aug-18 10:27 33.670860 -117.874489 209 59ft 0kts
17-Aug-18 10:28 33.670859 -117.874490 209 59ft 0kts
17-Aug-18 10:29 33.670858 -117.874491 209 59ft 0kts
17-Aug-18 10:30 33.670857 -117.874492 209 59ft 0kts
17-Aug-18 10:31 33.670856 -117.874493 209 59ft 0kts
17-Aug-18 10:32 33.670855 -117.874493 209 59ft 0kts
17-Aug-18 10:33 33.670854 -117.874494 209 59ft 0kts
17-Aug-18 10:34 33.670853 -117.874495 209 59ft 0kts
17-Aug-18 10:35 33.670852 -117.874495 209 59ft 0kts
17-Aug-18 10:36 33.670851 -117.874496 209 59ft 0kts
17-Aug-18 10:37 33.670850 -117.874497 209 59ft 0kts
17-Aug-18 10:38 33.670849 -117.874497 209 59ft 0kts
17-Aug-18 10:39 33.670848 -117.874498 209 59ft 0kts
17-Aug-18 10:40 33.670847 -117.874498 209 59ft 0kts
17-Aug-18 10:41 33.670836 -117.874506 209 59ft 0kts
17-Aug-18 10:42 33.670767 -117.874553 209 59ft 0kts
17-Aug-18 10:43 33.670767 -117.874553 209 59ft 0kts
17-Aug-18 10:44 33.670767 -117.874553 209 59ft 0kts
17-Aug-18 10:45 33.670767 -117.874553 209 59ft 0kts
17-Aug-18 10:46 33.670766 -117.874553 209 59ft 0kts
17-Aug-18 10:47 33.670766 -117.874553 209 59ft 0kts
17-Aug-18 10:48 33.670749 -117.874566 212 59ft 0kts
17-Aug-18 10:49 33.672018 -117.872710 26 59ft 13kts
17-Aug-18 10:50 33.676206 -117.870043 28 59ft 21kts
17-Aug-18 10:51 33.678306 -117.868666 19 59ft 5kts
17-Aug-18 10:52 33.679888 -117.867773 27 59ft 0kts
17-Aug-18 10:53 33.680825 -117.867135 60 59ft 3kts
17-Aug-18 10:54 33.680877 -117.866634 113 59ft 0kts
17-Aug-18 10:55 33.680469 -117.865863 149 59ft 3kts
17-Aug-18 10:56 33.666709 -117.874213 206 163ft 98kts
17-Aug-18 10:57 33.655174 -117.899577 285 834ft 107kts
17-Aug-18 10:58 33.677704 -117.916889 343 1623ft 103kts
17-Aug-18 10:59 33.706418 -117.926755 344 2191ft 115kts
17-Aug-18 11:00 33.738641 -117.927570 44 2422ft 144kts
17-Aug-18 11:01 33.764788 -117.886174 54 2399ft 157kts
17-Aug-18 11:02 33.783756 -117.840270 50 2474ft 147kts
17-Aug-18 11:03 33.813883 -117.807372 43 2500ft 147kts
17-Aug-18 11:04 33.828008 -117.763627 82 2945ft 134kts
17-Aug-18 11:05 33.833221 -117.719796 82 3662ft 131kts
17-Aug-18 11:06 33.838317 -117.677038 82 4359ft 127kts
17-Aug-18 11:07 33.843644 -117.636262 82 5035ft 117kts
17-Aug-18 11:08 33.855269 -117.599731 58 5740ft 119kts
17-Aug-18 11:09 33.875248 -117.567891 54 6427ft 120kts
17-Aug-18 11:10 33.899112 -117.530828 55 6507ft 159kts
17-Aug-18 11:11 33.927595 -117.486755 54 6500ft 170kts
17-Aug-18 11:12 33.957265 -117.441720 54 6500ft 171kts
17-Aug-18 11:13 33.987135 -117.396650 53 6253ft 173kts
17-Aug-18 11:14 34.017156 -117.351083 53 5256ft 174kts
17-Aug-18 11:15 34.046883 -117.306302 52 4256ft 167kts
17-Aug-18 11:16 34.077076 -117.260422 51 3506ft 158kts
17-Aug-18 11:17 34.104505 -117.233833 343 3157ft 119kts
17-Aug-18 11:18 34.097185 -117.270341 239 2492ft 95kts
17-Aug-18 11:19 34.080517 -117.279595 82 1638ft 104kts
17-Aug-18 11:20 34.090153 -117.252759 72 1177ft 79kts
17-Aug-18 11:21 34.094304 -117.237782 68 1122ft 24kts
17-Aug-18 11:22 34.095999 -117.236147 346 1122ft 1kts
17-Aug-18 11:23 34.096328 -117.236376 326 1122ft 3kts
17-Aug-18 11:24 34.099157 -117.238344 332 1122ft 13kts
17-Aug-18 11:25 34.102958 -117.241593 293 1122ft 12kts
17-Aug-18 11:26 34.103407 -117.244327 281 1122ft 0kts
17-Aug-18 11:27 34.103408 -117.244330 281 1122ft 0kts
17-Aug-18 11:28 34.103408 -117.244332 282 1122ft 0kts
17-Aug-18 11:29 34.103409 -117.244335 283 1122ft 0kts
17-Aug-18 11:30 34.103409 -117.244337 284 1122ft 0kts
17-Aug-18 11:31 34.103410 -117.244340 284 1122ft 0kts
17-Aug-18 11:32 34.103410 -117.244342 285 1122ft 0kts
17-Aug-18 11:33 34.103411 -117.244345 286 1122ft 0kts
17-Aug-18 11:34 34.103411 -117.244348 286 1122ft 0kts
17-Aug-18 11:35 34.103412 -117.244350 287 1122ft 0kts

Navigation Log

Ident Type
1. KSNA Airport
2. KSBD Airport